Time;durP1;ratioP1;P1;durP2;ratioP2;P2;SDS_P1;SDS_P2;PMS_P1;PMS_P2;Temp;Humidity;BMP_temperature;BMP_pressure;BME280_temperature;BME280_humidity;BME280_pressure;Samples;Min_cycle;Max_cycle;Signal;HPM_P1;HPM_P2
2024/01/03 00:01:34;;;;;;;13.45;2.10;;;13.60;70.50;14.90;98318.00;;;;5048258;28;20203;-73
2024/01/03 00:04:01;;;;;;;15.85;2.50;;;13.60;70.40;14.90;98317.00;;;;5048295;28;20198;-73
2024/01/03 00:06:34;;;;;;;16.08;2.15;;;13.60;70.60;14.90;98307.00;;;;5031340;28;20194;-74
2024/01/03 00:09:02;;;;;;;14.77;2.10;;;13.60;70.60;14.90;98337.00;;;;5026693;28;20773;-73
2024/01/03 00:11:31;;;;;;;10.27;3.00;;;13.60;70.50;14.90;98337.00;;;;5018427;28;20645;-74
2024/01/03 00:14:23;;;;;;;10.45;2.50;;;13.60;70.50;14.80;98330.00;;;;5030992;28;20196;-74
2024/01/03 00:16:50;;;;;;;7.50;1.55;;;13.60;70.60;14.90;98342.00;;;;5034708;28;20689;-74
2024/01/03 00:19:22;;;;;;;7.70;1.58;;;13.60;70.40;14.90;98346.00;;;;5031518;28;20279;-74
2024/01/03 00:21:50;;;;;;;7.40;1.58;;;13.60;70.50;14.90;98336.00;;;;5032065;28;20214;-74
2024/01/03 00:24:19;;;;;;;6.05;1.33;;;13.60;70.40;15.00;98339.00;;;;5031453;28;20207;-74
2024/01/03 00:26:47;;;;;;;2.20;0.80;;;13.60;70.40;14.90;98348.00;;;;5031130;28;20207;-74
2024/01/03 00:30:17;;;;;;;5.50;1.30;;;13.60;70.30;14.80;98342.00;;;;5031338;28;20643;-74
2024/01/03 00:32:44;;;;;;;7.63;1.00;;;13.50;70.40;14.90;98345.00;;;;5016704;28;20199;-75
2024/01/03 00:35:12;;;;;;;7.38;2.53;;;13.50;70.20;14.80;98360.00;;;;5030954;28;20220;-71
2024/01/03 00:37:43;;;;;;;8.98;2.00;;;13.50;70.20;14.80;98356.00;;;;5030456;28;20188;-72
2024/01/03 00:40:53;;;;;;;15.63;2.08;;;13.50;70.30;14.70;98366.00;;;;5031302;28;20200;-72
2024/01/03 00:43:20;;;;;;;11.68;2.33;;;13.50;70.40;14.80;98368.00;;;;5030995;28;20193;-72
2024/01/03 00:45:49;;;;;;;10.48;1.90;;;13.50;70.40;14.80;98358.00;;;;5031469;28;20204;-71
2024/01/03 00:48:17;;;;;;;12.05;2.85;;;13.50;70.40;14.90;98376.00;;;;5031375;28;20201;-71
2024/01/03 00:50:45;;;;;;;12.13;2.40;;;13.50;70.40;14.90;98376.00;;;;5042801;28;20234;-72
2024/01/03 00:53:13;;;;;;;22.15;3.20;;;13.50;70.40;14.90;98377.00;;;;5031181;28;20198;-71
2024/01/03 00:55:41;;;;;;;14.38;2.63;;;13.50;70.30;14.90;98378.00;;;;5030963;28;20303;-71
2024/01/03 00:58:10;;;;;;;15.07;2.90;;;13.60;70.30;14.90;98384.00;;;;5030863;28;20202;-71
2024/01/03 01:00:37;;;;;;;18.67;2.92;;;13.60;70.80;14.90;98411.00;;;;5031005;28;20195;-71
2024/01/03 01:03:05;;;;;;;14.40;2.83;;;13.60;69.90;15.00;98404.00;;;;5035019;28;20184;-71
2024/01/03 01:05:33;;;;;;;14.75;2.33;;;13.60;69.90;15.00;98420.00;;;;5034956;28;20200;-71
2024/01/03 01:08:00;;;;;;;16.42;1.95;;;13.70;69.90;15.00;98409.00;;;;5039452;28;20197;-74
2024/01/03 01:10:28;;;;;;;10.75;1.88;;;13.70;70.40;15.00;98404.00;;;;5034386;28;20255;-74
2024/01/03 01:12:56;;;;;;;8.02;1.58;;;13.70;69.60;15.00;98435.00;;;;5035199;28;20560;-74
2024/01/03 01:15:23;;;;;;;11.77;2.08;;;13.70;70.20;15.10;98432.00;;;;5034595;28;20216;-74
2024/01/03 01:17:50;;;;;;;11.73;2.60;;;13.80;69.50;15.10;98431.00;;;;5034860;28;20208;-74
2024/01/03 01:20:17;;;;;;;17.63;3.45;;;13.80;69.50;15.10;98422.00;;;;5034366;28;20240;-75
2024/01/03 01:22:44;;;;;;;12.48;2.85;;;13.80;69.40;15.20;98428.00;;;;5034463;28;20673;-75
2024/01/03 01:25:12;;;;;;;13.05;2.60;;;13.80;69.30;15.20;98447.00;;;;5045717;28;20224;-74
2024/01/03 01:27:40;;;;;;;12.68;2.75;;;13.90;69.40;15.20;98439.00;;;;5034148;28;20214;-75
2024/01/03 01:30:09;;;;;;;17.02;2.38;;;13.90;69.40;15.20;98452.00;;;;5034147;28;20201;-76
2024/01/03 01:32:36;;;;;;;11.02;2.00;;;13.90;69.20;15.20;98446.00;;;;5034246;28;20615;-75
2024/01/03 01:35:03;;;;;;;14.82;2.95;;;13.90;69.20;15.30;98450.00;;;;5034281;28;20228;-75
2024/01/03 01:37:30;;;;;;;9.55;1.98;;;13.90;69.10;15.30;98446.00;;;;5034350;28;20207;-75
2024/01/03 01:39:57;;;;;;;10.88;1.95;;;13.90;69.10;15.30;98473.00;;;;5034619;28;20242;-75
2024/01/03 01:42:25;;;;;;;16.10;2.58;;;14.00;69.10;15.30;98472.00;;;;5034913;28;20295;-75
2024/01/03 01:44:53;;;;;;;9.10;1.63;;;14.00;69.00;15.40;98452.00;;;;5034031;28;20208;-75
2024/01/03 01:47:20;;;;;;;16.17;2.97;;;14.00;69.00;15.40;98477.00;;;;5034614;28;20200;-74
2024/01/03 01:49:48;;;;;;;13.90;3.22;;;14.00;68.90;15.40;98457.00;;;;5033883;28;20651;-74
2024/01/03 01:52:18;;;;;;;12.98;3.15;;;14.10;68.90;15.40;98460.00;;;;5034292;28;20224;-74
2024/01/03 01:54:45;;;;;;;11.05;2.42;;;14.10;68.80;15.40;98470.00;;;;5033962;28;20205;-74
2024/01/03 01:57:14;;;;;;;11.50;2.42;;;14.10;68.70;15.40;98458.00;;;;5033576;28;20656;-74
2024/01/03 01:59:42;;;;;;;13.75;2.25;;;14.20;68.60;15.50;98486.00;;;;5020108;28;20197;-74
2024/01/03 02:02:12;;;;;;;11.73;2.42;;;14.10;68.60;15.50;98477.00;;;;5033608;28;20196;-74
2024/01/03 02:04:40;;;;;;;15.43;3.17;;;14.10;68.60;15.50;98484.00;;;;5021452;28;20219;-75
2024/01/03 02:07:08;;;;;;;14.85;2.35;;;14.20;68.40;15.50;98486.00;;;;5033813;28;20196;-72
2024/01/03 02:09:35;;;;;;;12.13;2.72;;;14.20;68.30;15.60;98474.00;;;;5033263;28;20198;-72
2024/01/03 02:12:02;;;;;;;10.32;2.30;;;14.20;68.20;15.50;98507.00;;;;5033731;28;20231;-72
2024/01/03 02:14:29;;;;;;;8.88;1.80;;;14.20;68.20;15.60;98520.00;;;;5033376;28;20192;-72
2024/01/03 02:16:56;;;;;;;11.55;2.20;;;14.20;68.10;15.60;98507.00;;;;5033768;28;20217;-72
2024/01/03 02:19:24;;;;;;;11.00;2.13;;;14.20;68.00;15.60;98509.00;;;;5033804;28;20196;-72
2024/01/03 02:21:53;;;;;;;13.23;3.20;;;14.20;67.80;15.60;98520.00;;;;5033546;28;20196;-72
2024/01/03 02:24:20;;;;;;;13.23;2.28;;;14.30;67.90;15.60;98524.00;;;;5033204;28;20203;-71
2024/01/03 02:26:47;;;;;;;10.77;2.53;;;14.30;67.80;15.60;98523.00;;;;5032676;28;20204;-71
2024/01/03 02:29:14;;;;;;;7.57;2.03;;;14.30;67.80;15.60;98516.00;;;;5033224;28;20196;-71
2024/01/03 02:31:41;;;;;;;11.10;2.20;;;14.30;67.70;15.60;98528.00;;;;5036821;28;20321;-72
2024/01/03 02:34:08;;;;;;;8.80;2.08;;;14.30;68.30;15.60;98530.00;;;;5040811;28;20227;-71
2024/01/03 02:36:35;;;;;;;13.52;2.08;;;14.30;67.50;15.60;98529.00;;;;5033189;28;20262;-72
2024/01/03 02:39:05;;;;;;;8.80;1.77;;;14.30;67.30;15.60;98534.00;;;;5032888;28;20188;-74
2024/01/03 02:41:31;;;;;;;10.00;2.28;;;14.30;67.40;15.70;98531.00;;;;5033084;28;20208;-74
2024/01/03 02:43:58;;;;;;;8.93;1.92;;;14.40;67.60;15.70;98536.00;;;;5032703;28;20658;-74
2024/01/03 02:46:25;;;;;;;12.40;1.88;;;14.40;67.50;15.70;98556.00;;;;5032514;28;20204;-74
2024/01/03 02:48:52;;;;;;;14.43;2.60;;;14.40;67.50;15.70;98534.00;;;;5038629;28;20299;-74
2024/01/03 02:51:20;;;;;;;11.77;2.58;;;14.40;67.60;15.70;98535.00;;;;5041217;28;20227;-73
2024/01/03 02:53:47;;;;;;;10.63;2.17;;;14.40;67.50;15.70;98547.00;;;;5032588;28;20201;-73
2024/01/03 02:56:16;;;;;;;15.98;2.67;;;14.40;67.40;15.70;98551.00;;;;5032796;28;20207;-74
2024/01/03 02:58:43;;;;;;;13.40;1.80;;;14.40;67.50;15.70;98557.00;;;;5032834;28;20214;-73
2024/01/03 03:01:10;;;;;;;8.73;2.05;;;14.40;67.50;15.70;98556.00;;;;5033190;28;20200;-73
2024/01/03 03:03:37;;;;;;;12.23;2.85;;;14.40;68.30;15.70;98563.00;;;;5032574;28;20197;-73
2024/01/03 03:06:05;;;;;;;25.33;2.97;;;14.30;67.60;15.80;98551.00;;;;5041152;28;20675;-73
2024/01/03 03:08:32;;;;;;;14.40;3.38;;;14.40;67.70;15.80;98548.00;;;;5052494;28;20195;-74
2024/01/03 03:10:59;;;;;;;14.45;2.83;;;14.40;67.70;15.80;98568.00;;;;5033800;28;20228;-74
2024/01/03 03:13:28;;;;;;;17.80;3.10;;;14.40;67.60;15.70;98566.00;;;;5031044;28;20575;-74
2024/01/03 03:15:55;;;;;;;13.63;3.80;;;14.40;67.70;15.70;98563.00;;;;5032218;28;20216;-73
2024/01/03 03:18:22;;;;;;;10.27;2.55;;;14.40;67.70;15.80;98558.00;;;;5032042;28;20200;-74
2024/01/03 03:20:49;;;;;;;14.30;3.05;;;14.40;67.70;15.80;98556.00;;;;5032272;28;20592;-74
2024/01/03 03:23:16;;;;;;;15.30;2.90;;;14.40;67.80;15.80;98563.00;;;;5040596;28;20657;-74
2024/01/03 03:25:43;;;;;;;15.27;2.28;;;14.40;67.80;15.80;98552.00;;;;5035671;28;20217;-74
2024/01/03 03:28:10;;;;;;;16.70;2.90;;;14.40;67.70;15.80;98568.00;;;;5031825;28;20196;-74
2024/01/03 03:30:38;;;;;;;14.98;2.95;;;14.40;68.50;15.80;98567.00;;;;5032055;28;20192;-74
2024/01/03 03:33:05;;;;;;;16.92;3.22;;;14.40;67.70;15.80;98561.00;;;;5032113;28;20205;-74
2024/01/03 03:35:32;;;;;;;15.98;2.80;;;14.50;67.80;15.80;98578.00;;;;5031666;28;20719;-74
2024/01/03 03:37:59;;;;;;;17.88;2.97;;;14.50;67.80;15.80;98568.00;;;;5032362;28;20295;-73
2024/01/03 03:40:26;;;;;;;10.90;2.30;;;14.50;67.80;15.80;98561.00;;;;5032605;28;20592;-73
2024/01/03 03:42:53;;;;;;;19.98;3.53;;;14.50;67.80;15.80;98581.00;;;;5031561;28;20194;-73
2024/01/03 03:45:20;;;;;;;14.88;3.40;;;14.50;67.80;15.80;98570.00;;;;5031861;28;20200;-73
2024/01/03 03:47:49;;;;;;;15.15;2.92;;;14.50;67.80;15.80;98580.00;;;;5032202;28;20568;-74
2024/01/03 03:50:16;;;;;;;12.00;2.15;;;14.40;67.80;15.90;98595.00;;;;5031604;28;20666;-74
2024/01/03 03:52:43;;;;;;;16.85;3.30;;;14.50;67.90;15.80;98579.00;;;;5031779;28;20224;-73
2024/01/03 03:55:10;;;;;;;9.48;2.58;;;14.40;67.80;15.80;98582.00;;;;5030996;28;20685;-74
2024/01/03 03:57:37;;;;;;;14.88;3.40;;;14.50;67.90;15.80;98604.00;;;;5032682;28;20231;-73
2024/01/03 04:00:07;;;;;;;13.68;2.63;;;14.50;67.90;15.90;98600.00;;;;5031709;28;20694;-74
2024/01/03 04:02:34;;;;;;;16.23;3.63;;;14.50;68.00;15.80;98599.00;;;;5031657;28;20193;-75
2024/01/03 04:05:02;;;;;;;14.00;2.55;;;14.50;68.00;15.80;98587.00;;;;5032956;28;20282;-74
2024/01/03 04:07:31;;;;;;;16.75;3.22;;;14.50;68.70;15.90;98590.00;;;;5038541;28;20684;-75
2024/01/03 04:09:58;;;;;;;12.85;2.58;;;14.50;68.00;15.90;98588.00;;;;5031819;28;20246;-74
2024/01/03 04:12:25;;;;;;;19.60;3.00;;;14.50;68.00;15.90;98590.00;;;;5031724;28;20216;-75
2024/01/03 04:14:53;;;;;;;15.63;2.88;;;14.50;67.90;15.90;98597.00;;;;5031832;28;20200;-71
2024/01/03 04:17:20;;;;;;;9.98;2.53;;;14.50;67.90;15.90;98592.00;;;;5030983;28;20279;-71
2024/01/03 04:19:47;;;;;;;16.65;4.13;;;14.50;67.80;15.90;98595.00;;;;5031885;28;20227;-71
2024/01/03 04:22:16;;;;;;;15.00;2.90;;;14.50;67.80;15.80;98595.00;;;;5031103;28;20199;-71
2024/01/03 04:24:43;;;;;;;20.40;4.03;;;14.50;67.80;15.90;98599.00;;;;5031358;28;20195;-71
2024/01/03 04:27:11;;;;;;;16.65;3.17;;;14.50;67.90;15.90;98609.00;;;;5031669;28;20276;-71
2024/01/03 04:29:38;;;;;;;16.63;2.90;;;14.50;67.90;15.90;98603.00;;;;5029841;28;20196;-71
2024/01/03 04:32:07;;;;;;;13.35;2.35;;;14.50;67.90;15.90;98613.00;;;;5047207;28;20230;-71
2024/01/03 04:34:36;;;;;;;16.30;2.83;;;14.50;67.90;15.90;98614.00;;;;5032843;28;20200;-71
2024/01/03 04:37:04;;;;;;;17.27;3.45;;;14.50;67.90;15.90;98622.00;;;;5033612;28;20202;-71
2024/01/03 04:39:32;;;;;;;17.80;3.30;;;14.50;67.80;15.90;98610.00;;;;5035142;28;20227;-71
2024/01/03 04:41:59;;;;;;;14.70;3.67;;;14.60;67.90;15.90;98605.00;;;;5035132;28;20199;-74
2024/01/03 04:44:26;;;;;;;18.25;4.30;;;14.60;67.90;15.90;98602.00;;;;5021245;28;20196;-74
2024/01/03 04:46:53;;;;;;;16.58;2.78;;;14.60;67.80;15.90;98607.00;;;;5034811;28;20215;-75
2024/01/03 04:49:20;;;;;;;20.38;3.50;;;14.50;67.70;15.90;98608.00;;;;5034948;28;20192;-75
2024/01/03 04:51:47;;;;;;;14.63;3.55;;;14.60;67.80;15.90;98610.00;;;;5035818;28;20226;-74
2024/01/03 04:54:14;;;;;;;15.45;3.80;;;14.60;68.60;15.90;98605.00;;;;5032789;28;20193;-74
2024/01/03 04:56:43;;;;;;;10.98;2.20;;;14.60;67.80;15.90;98610.00;;;;5015208;28;20201;-74
2024/01/03 04:59:10;;;;;;;17.35;3.10;;;14.60;67.80;15.90;98602.00;;;;5018747;28;20196;-74
2024/01/03 05:01:37;;;;;;;14.98;2.40;;;14.50;67.70;15.90;98604.00;;;;5035733;28;20246;-74
2024/01/03 05:04:04;;;;;;;17.33;2.95;;;14.50;67.60;15.90;98603.00;;;;5024396;28;20205;-74
2024/01/03 05:06:31;;;;;;;15.55;2.75;;;14.50;67.70;15.90;98608.00;;;;5039898;28;20204;-74
2024/01/03 05:08:58;;;;;;;17.92;3.35;;;14.60;67.70;16.00;98614.00;;;;5035051;28;20201;-74
2024/01/03 05:11:25;;;;;;;12.63;1.98;;;14.60;67.80;16.00;98615.00;;;;5031350;28;20725;-74
2024/01/03 05:13:53;;;;;;;10.00;2.17;;;14.60;67.70;16.00;98616.00;;;;5034558;28;20204;-74
2024/01/03 05:16:21;;;;;;;14.23;3.03;;;14.60;67.80;16.00;98610.00;;;;5034663;28;20208;-74
2024/01/03 05:18:48;;;;;;;12.13;2.78;;;14.60;67.70;16.00;98611.00;;;;5033959;28;20211;-74
2024/01/03 05:21:15;;;;;;;8.52;1.75;;;14.60;67.80;16.00;98623.00;;;;5035487;28;20197;-73
2024/01/03 05:23:42;;;;;;;11.43;2.88;;;14.60;67.80;16.00;98615.00;;;;5035087;28;20653;-74
2024/01/03 05:26:10;;;;;;;11.30;2.30;;;14.60;67.70;16.00;98616.00;;;;5034692;28;20676;-74
2024/01/03 05:28:37;;;;;;;11.32;2.28;;;14.60;67.60;16.00;98624.00;;;;5019701;28;20196;-73
2024/01/03 05:31:05;;;;;;;9.57;2.50;;;14.60;67.60;16.00;98620.00;;;;5034396;28;20193;-74
2024/01/03 05:33:32;;;;;;;8.75;1.98;;;14.60;67.60;16.00;98629.00;;;;5034392;28;20224;-72
2024/01/03 05:35:59;;;;;;;14.45;2.22;;;14.60;67.50;16.00;98624.00;;;;5034269;28;20224;-72
2024/01/03 05:38:26;;;;;;;12.35;2.58;;;14.60;67.60;15.90;98631.00;;;;5036555;28;20211;-72
2024/01/03 05:40:53;;;;;;;9.38;2.03;;;14.60;67.60;15.90;98625.00;;;;5028967;28;20284;-72
2024/01/03 05:43:21;;;;;;;12.85;2.33;;;14.50;67.70;15.90;98616.00;;;;5025255;28;20504;-72
2024/01/03 05:45:48;;;;;;;8.25;1.98;;;14.50;67.80;15.90;98619.00;;;;5033191;28;20208;-74
2024/01/03 05:48:17;;;;;;;7.53;1.70;;;14.50;67.90;15.90;98618.00;;;;5034230;28;20239;-74
2024/01/03 05:50:45;;;;;;;8.77;1.60;;;14.50;67.90;15.80;98629.00;;;;5033811;28;20200;-74
2024/01/03 05:53:12;;;;;;;8.82;2.08;;;14.40;67.90;15.80;98634.00;;;;5033792;28;20310;-74
2024/01/03 05:55:39;;;;;;;6.07;1.70;;;14.40;68.60;15.80;98632.00;;;;5034277;28;20197;-74
2024/01/03 05:58:06;;;;;;;6.97;1.38;;;14.40;67.90;15.70;98638.00;;;;5034403;28;20193;-75
2024/01/03 06:00:33;;;;;;;7.28;2.38;;;14.30;67.80;15.70;98641.00;;;;5033481;28;20207;-74
2024/01/03 06:03:00;;;;;;;6.68;1.90;;;14.30;67.80;15.60;98635.00;;;;5034612;28;20219;-74
2024/01/03 06:05:28;;;;;;;10.20;1.80;;;14.30;67.90;15.60;98649.00;;;;5042965;28;20671;-74
2024/01/03 06:07:55;;;;;;;9.20;2.00;;;14.30;67.90;15.60;98643.00;;;;5037762;28;20193;-74
2024/01/03 06:10:22;;;;;;;7.95;1.27;;;14.20;67.90;15.60;98656.00;;;;5033532;28;20200;-74
2024/01/03 06:12:49;;;;;;;2.80;0.77;;;14.20;68.30;15.60;98651.00;;;;5038848;28;20219;-74
2024/01/03 06:15:17;;;;;;;5.25;1.02;;;14.20;68.10;15.60;98654.00;;;;5042316;28;20223;-73
2024/01/03 06:17:44;;;;;;;7.47;1.17;;;14.20;68.20;15.60;98642.00;;;;5034063;28;20737;-73
2024/01/03 06:20:11;;;;;;;6.20;0.90;;;14.20;68.20;15.60;98642.00;;;;5033041;28;20201;-73
2024/01/03 06:22:40;;;;;;;6.63;1.67;;;14.10;68.10;15.60;98662.00;;;;5033361;28;20279;-74
2024/01/03 06:25:07;;;;;;;3.42;0.77;;;14.10;68.10;15.60;98644.00;;;;5033734;28;20204;-73
2024/01/03 06:27:34;;;;;;;4.45;1.13;;;14.10;68.80;15.60;98649.00;;;;5033414;28;20283;-73
2024/01/03 06:30:01;;;;;;;4.65;0.65;;;14.20;68.20;15.60;98648.00;;;;5033125;28;20665;-73
2024/01/03 06:32:28;;;;;;;7.40;1.15;;;14.20;68.20;15.60;98650.00;;;;5033067;28;20220;-73
2024/01/03 06:34:55;;;;;;;6.63;1.73;;;14.20;68.20;15.60;98646.00;;;;5032927;28;20701;-73
2024/01/03 06:37:22;;;;;;;4.15;1.00;;;14.20;68.20;15.60;98649.00;;;;5031469;28;20192;-73
2024/01/03 06:39:50;;;;;;;4.68;1.23;;;14.20;68.20;15.60;98654.00;;;;5033132;28;20200;-73
2024/01/03 06:42:18;;;;;;;3.33;1.23;;;14.10;68.20;15.60;98657.00;;;;5032529;28;20654;-74
2024/01/03 06:44:44;;;;;;;3.65;1.15;;;14.10;68.20;15.60;98658.00;;;;5033309;28;20192;-73
2024/01/03 06:47:11;;;;;;;3.65;0.90;;;14.10;68.20;15.60;98652.00;;;;5033604;28;20206;-73
2024/01/03 06:49:38;;;;;;;3.33;0.55;;;14.10;68.20;15.60;98664.00;;;;5032242;28;20199;-73
2024/01/03 06:52:06;;;;;;;6.00;1.05;;;14.10;68.20;15.60;98656.00;;;;5032894;28;20246;-73
2024/01/03 06:54:33;;;;;;;4.38;0.60;;;14.10;68.20;15.60;98661.00;;;;5033318;28;20203;-73
2024/01/03 06:57:01;;;;;;;3.92;0.70;;;14.10;68.20;15.60;98655.00;;;;5032544;28;20200;-74
2024/01/03 06:59:28;;;;;;;3.72;0.77;;;14.10;68.20;15.60;98657.00;;;;5032624;28;20532;-72
2024/01/03 07:01:56;;;;;;;2.92;0.70;;;14.10;68.20;15.50;98665.00;;;;5032626;28;20197;-73
2024/01/03 07:04:25;;;;;;;2.22;0.57;;;14.10;68.20;15.60;98681.00;;;;5036631;28;20520;-73
2024/01/03 07:06:52;;;;;;;3.17;0.82;;;14.10;68.20;15.50;98669.00;;;;5038044;28;20246;-73
2024/01/03 07:09:19;;;;;;;4.30;0.43;;;14.10;68.20;15.50;98678.00;;;;5032979;28;20196;-73
2024/01/03 07:11:46;;;;;;;2.50;0.45;;;14.10;68.20;15.50;98666.00;;;;5032526;28;20206;-74
2024/01/03 07:14:15;;;;;;;5.43;0.98;;;14.10;68.20;15.40;98670.00;;;;5032961;28;20329;-73
2024/01/03 07:16:42;;;;;;;2.83;0.57;;;14.00;68.10;15.40;98678.00;;;;5032202;28;20861;-74
2024/01/03 07:19:09;;;;;;;4.05;0.60;;;14.00;68.10;15.40;98681.00;;;;5032812;28;20196;-74
2024/01/03 07:21:36;;;;;;;2.63;0.52;;;14.00;68.10;15.40;98690.00;;;;5032477;28;20235;-73
2024/01/03 07:24:03;;;;;;;2.95;0.50;;;13.90;68.00;15.30;98700.00;;;;5032385;28;20200;-74
2024/01/03 07:26:30;;;;;;;1.20;0.30;;;13.90;68.00;15.30;98692.00;;;;5031483;28;20231;-74
2024/01/03 07:28:57;;;;;;;2.28;0.63;;;13.90;68.10;15.30;98699.00;;;;5031978;28;20192;-73
2024/01/03 07:31:25;;;;;;;3.25;0.20;;;13.90;68.10;15.30;98691.00;;;;5032224;28;20565;-74
2024/01/03 07:33:52;;;;;;;2.55;1.02;;;13.80;67.90;15.20;98698.00;;;;5032326;28;20216;-73
2024/01/03 07:36:20;;;;;;;1.15;0.30;;;13.80;67.90;15.20;98702.00;;;;5031150;28;20220;-74
2024/01/03 07:38:47;;;;;;;2.38;0.50;;;13.70;67.90;15.20;98701.00;;;;5032424;28;20683;-74
2024/01/03 07:41:19;;;;;;;1.75;0.30;;;13.70;67.90;15.10;98694.00;;;;5031750;28;20294;-74
2024/01/03 07:43:46;;;;;;;1.35;0.17;;;13.70;68.60;15.10;98694.00;;;;5032295;28;20564;-74
2024/01/03 07:46:16;;;;;;;2.03;0.28;;;13.60;67.90;15.10;98699.00;;;;5032062;28;20575;-73
2024/01/03 07:48:44;;;;;;;5.53;0.30;;;13.60;68.00;15.10;98697.00;;;;5031622;28;20214;-73
2024/01/03 07:51:12;;;;;;;2.05;0.38;;;13.60;68.70;15.10;98714.00;;;;5031157;28;20287;-73
2024/01/03 07:53:39;;;;;;;2.50;0.30;;;13.60;68.00;15.00;98708.00;;;;5031590;28;20576;-74
2024/01/03 07:56:08;;;;;;;2.55;0.30;;;13.50;68.00;15.00;98711.00;;;;5041752;28;20197;-73
2024/01/03 07:58:35;;;;;;;4.90;0.32;;;13.50;68.10;15.00;98724.00;;;;5032329;28;20200;-73
2024/01/03 08:01:03;;;;;;;1.98;0.15;;;13.50;68.20;15.00;98721.00;;;;5031926;28;20196;-73
2024/01/03 08:03:30;;;;;;;2.67;0.38;;;13.50;68.30;15.00;98711.00;;;;5031851;28;20279;-73
2024/01/03 08:05:58;;;;;;;4.57;0.47;;;13.50;68.30;15.00;98722.00;;;;5040117;28;20199;-74
2024/01/03 08:08:25;;;;;;;7.10;0.73;;;13.50;68.40;15.00;98721.00;;;;5031767;28;20196;-73
2024/01/03 08:10:52;;;;;;;4.70;0.60;;;13.50;68.50;15.00;98722.00;;;;5030601;28;20279;-73
2024/01/03 08:13:19;;;;;;;3.28;0.90;;;13.50;68.60;15.00;98733.00;;;;5032389;28;20232;-74
2024/01/03 08:15:46;;;;;;;2.40;0.32;;;13.50;69.40;15.00;98729.00;;;;5031632;28;20302;-73
2024/01/03 08:18:13;;;;;;;2.53;0.70;;;13.50;69.40;15.00;98725.00;;;;5031840;28;20287;-74
2024/01/03 08:20:40;;;;;;;4.25;0.68;;;13.50;68.80;15.00;98725.00;;;;5031315;28;20203;-73
2024/01/03 08:23:08;;;;;;;4.88;1.05;;;13.50;68.90;15.10;98733.00;;;;5031338;28;20279;-73
2024/01/03 08:25:35;;;;;;;5.50;1.10;;;13.50;68.90;15.00;98733.00;;;;5031389;28;20295;-73
2024/01/03 08:28:03;;;;;;;4.45;0.88;;;13.50;68.90;15.10;98738.00;;;;5031531;28;20196;-73
2024/01/03 08:30:30;;;;;;;4.93;0.93;;;13.50;69.00;15.10;98737.00;;;;5031720;28;20203;-74
2024/01/03 08:32:58;;;;;;;12.48;1.35;;;13.60;69.00;15.10;98736.00;;;;5031874;28;20228;-73
2024/01/03 08:35:25;;;;;;;5.70;1.20;;;13.60;69.10;15.10;98748.00;;;;5031333;28;20254;-73
2024/01/03 08:37:52;;;;;;;3.38;0.77;;;13.60;69.10;15.10;98735.00;;;;5011661;28;20201;-73
2024/01/03 08:40:22;;;;;;;4.55;0.95;;;13.60;69.10;15.10;98735.00;;;;5030934;28;20282;-73
2024/01/03 08:42:49;;;;;;;3.20;0.90;;;13.60;69.20;15.10;98745.00;;;;5011956;28;20200;-73
2024/01/03 08:45:16;;;;;;;3.70;0.70;;;13.60;69.30;15.10;98745.00;;;;5022172;28;20204;-74
2024/01/03 08:47:43;;;;;;;5.50;1.25;;;13.60;69.30;15.20;98750.00;;;;5030319;28;20531;-73
2024/01/03 08:50:13;;;;;;;3.90;0.80;;;13.60;69.40;15.20;98752.00;;;;5031302;28;20198;-73
2024/01/03 08:52:41;;;;;;;7.32;2.35;;;13.60;69.40;15.20;98750.00;;;;5030370;28;20224;-73
2024/01/03 08:55:08;;;;;;;5.63;1.83;;;13.70;69.50;15.20;98750.00;;;;5030151;28;20247;-73
2024/01/03 08:57:37;;;;;;;8.82;1.20;;;13.70;69.50;15.20;98757.00;;;;5029207;28;20286;-73
2024/01/03 09:00:05;;;;;;;4.53;1.85;;;13.70;69.50;15.20;98752.00;;;;5028979;28;20212;-73
2024/01/03 09:02:32;;;;;;;8.43;1.88;;;13.70;69.60;15.20;98756.00;;;;5032022;28;20584;-74
2024/01/03 09:04:59;;;;;;;5.65;1.70;;;13.70;69.50;15.30;98759.00;;;;5036420;28;20196;-73
2024/01/03 09:07:26;;;;;;;4.53;1.17;;;13.80;69.60;15.30;98754.00;;;;5032096;28;20307;-73
2024/01/03 09:09:54;;;;;;;3.15;1.58;;;13.80;69.60;15.30;98756.00;;;;5031129;28;20202;-73
2024/01/03 09:12:22;;;;;;;4.65;1.65;;;13.80;70.40;15.30;98754.00;;;;5030830;28;20582;-73
2024/01/03 09:14:50;;;;;;;4.03;1.40;;;13.80;69.70;15.30;98754.00;;;;5030616;28;20644;-74
2024/01/03 09:17:17;;;;;;;5.97;1.33;;;13.80;69.70;15.40;98766.00;;;;5031037;28;20208;-73
2024/01/03 09:19:44;;;;;;;6.88;1.10;;;13.80;69.70;15.40;98768.00;;;;5032077;28;20195;-73
2024/01/03 09:22:12;;;;;;;6.75;1.70;;;13.80;69.70;15.40;98766.00;;;;5032105;28;20203;-73
2024/01/03 09:24:39;;;;;;;3.92;1.50;;;13.90;69.70;15.40;98765.00;;;;5032549;28;20216;-73
2024/01/03 09:27:06;;;;;;;3.15;1.10;;;13.90;69.70;15.40;98772.00;;;;5032225;28;20200;-74
2024/01/03 09:29:33;;;;;;;5.13;1.00;;;13.90;69.70;15.40;98777.00;;;;5032825;28;20604;-74
2024/01/03 09:32:02;;;;;;;3.30;0.95;;;13.90;69.70;15.40;98777.00;;;;5032861;28;20200;-73
2024/01/03 09:34:29;;;;;;;2.80;0.80;;;13.90;70.40;15.40;98777.00;;;;5032704;28;20247;-73
2024/01/03 09:36:56;;;;;;;4.10;1.40;;;13.90;69.70;15.40;98795.00;;;;5033292;28;20203;-73
2024/01/03 09:39:23;;;;;;;6.85;1.40;;;13.90;69.70;15.40;98786.00;;;;5032679;28;20568;-74
2024/01/03 09:41:50;;;;;;;4.07;0.88;;;13.90;69.70;15.40;98799.00;;;;5031959;28;20291;-75
2024/01/03 09:44:17;;;;;;;10.05;2.33;;;13.90;69.80;15.40;98779.00;;;;5031935;28;20203;-75
2024/01/03 09:46:48;;;;;;;6.65;1.35;;;13.90;69.80;15.40;98792.00;;;;5032684;28;20200;-74
2024/01/03 09:49:18;;;;;;;8.48;1.55;;;13.90;69.80;15.40;98787.00;;;;5034105;28;20231;-75
2024/01/03 09:51:48;;;;;;;3.35;0.88;;;13.90;69.80;15.40;98792.00;;;;5033911;28;20669;-75
2024/01/03 09:54:15;;;;;;;9.77;1.73;;;13.90;69.80;15.40;98794.00;;;;5034470;28;20232;-75
2024/01/03 09:56:42;;;;;;;8.73;1.75;;;13.90;69.80;15.40;98800.00;;;;5033916;28;20614;-75
2024/01/03 09:59:09;;;;;;;6.45;1.80;;;13.90;69.70;15.40;98811.00;;;;5033422;28;20302;-74
2024/01/03 10:01:37;;;;;;;8.68;1.55;;;13.90;69.90;15.40;98812.00;;;;5033697;28;20231;-74
2024/01/03 10:04:06;;;;;;;5.80;1.73;;;13.90;69.90;15.40;98819.00;;;;5016572;28;20603;-74
2024/01/03 10:06:53;;;;;;;7.63;1.45;;;13.90;69.90;15.20;98812.00;;;;5039749;28;20271;-74
2024/01/03 10:09:21;;;;;;;8.35;1.40;;;13.90;70.20;15.40;98819.00;;;;5031733;28;20200;-73
2024/01/03 10:11:51;;;;;;;6.82;1.30;;;13.90;70.10;15.40;98821.00;;;;5032053;28;20206;-73
2024/01/03 10:14:20;;;;;;;6.07;1.38;;;13.80;70.10;15.40;98817.00;;;;5015395;28;20232;-74
2024/01/03 10:16:47;;;;;;;7.30;1.23;;;13.80;70.20;15.40;98819.00;;;;5026478;28;20657;-74
2024/01/03 10:19:17;;;;;;;8.38;1.88;;;13.90;70.40;15.40;98813.00;;;;5019565;28;20569;-74
2024/01/03 10:21:50;;;;;;;13.48;2.10;;;13.90;70.40;15.30;98822.00;;;;5031698;28;20269;-75
2024/01/03 10:24:19;;;;;;;8.02;1.10;;;13.90;70.50;15.40;98820.00;;;;5033422;28;20279;-73
2024/01/03 10:26:46;;;;;;;9.25;1.83;;;13.90;70.50;15.50;98819.00;;;;5032955;28;20676;-73
2024/01/03 10:29:15;;;;;;;8.02;1.40;;;13.90;70.60;15.50;98817.00;;;;5047665;28;20207;-74
2024/01/03 10:31:43;;;;;;;7.82;1.90;;;14.00;70.60;15.50;98819.00;;;;5033278;28;20256;-74
2024/01/03 10:34:15;;;;;;;11.98;2.17;;;14.00;70.70;15.60;98817.00;;;;5032261;28;20235;-73
2024/01/03 10:36:44;;;;;;;5.97;1.92;;;14.00;70.70;15.60;98820.00;;;;5033294;28;20200;-74
2024/01/03 10:39:17;;;;;;;12.00;2.20;;;14.10;70.80;15.60;98819.00;;;;5032991;28;20208;-73
2024/01/03 10:41:45;;;;;;;6.95;1.67;;;14.10;70.90;15.80;98813.00;;;;5033475;28;20204;-74
2024/01/03 10:44:15;;;;;;;10.10;2.53;;;14.20;71.10;15.80;98806.00;;;;5033766;28;20279;-74
2024/01/03 10:46:43;;;;;;;12.23;2.13;;;14.20;71.10;15.90;98824.00;;;;5032789;28;20462;-75
2024/01/03 10:49:10;;;;;;;9.23;2.00;;;14.20;71.10;15.90;98817.00;;;;5032967;28;20210;-74
2024/01/03 10:51:40;;;;;;;6.45;1.83;;;14.30;70.80;15.90;98820.00;;;;5033295;28;20235;-74
2024/01/03 10:54:13;;;;;;;14.63;1.95;;;14.40;70.80;15.90;98829.00;;;;5033083;28;20721;-74